createdAt,value
2017-04-10T00:00:28.769Z,0
2017-04-10T00:01:28.586Z,0
2017-04-10T00:02:28.637Z,0
2017-04-10T00:03:28.713Z,0
2017-04-10T00:04:28.692Z,0
2017-04-10T00:05:28.725Z,0
2017-04-10T00:06:28.733Z,0
2017-04-10T00:07:28.806Z,0
2017-04-10T00:08:28.787Z,0
2017-04-10T00:09:28.813Z,0
2017-04-10T00:10:28.882Z,0
2017-04-10T00:11:28.884Z,0
2017-04-10T00:12:28.924Z,0
2017-04-10T00:13:28.950Z,0
2017-04-10T00:14:28.982Z,0
2017-04-10T00:15:29.005Z,0
2017-04-10T00:16:29.050Z,0
2017-04-10T00:17:29.051Z,0
2017-04-10T00:18:29.115Z,0
2017-04-10T00:19:29.127Z,0
2017-04-10T00:20:29.155Z,0
2017-04-10T00:21:29.203Z,0
2017-04-10T00:22:29.230Z,0
2017-04-10T00:23:29.278Z,0
2017-04-10T00:24:29.547Z,0
2017-04-10T00:25:29.760Z,0
2017-04-10T00:26:29.438Z,0
2017-04-10T00:27:29.385Z,0
2017-04-10T00:28:29.387Z,0
2017-04-10T00:29:29.422Z,0
2017-04-10T00:30:29.758Z,0
2017-04-10T00:31:29.507Z,0
2017-04-10T00:32:29.534Z,0
2017-04-10T00:33:29.571Z,0
2017-04-10T00:34:29.595Z,0
2017-04-10T00:35:29.758Z,0
2017-04-10T00:36:29.643Z,0
2017-04-10T00:37:29.663Z,0
2017-04-10T00:38:29.686Z,0
2017-04-10T00:39:29.714Z,0
2017-04-10T00:40:29.915Z,0
2017-04-10T00:41:29.767Z,0
2017-04-10T00:42:29.762Z,0
2017-04-10T00:43:29.836Z,0
2017-04-10T00:44:29.897Z,0
2017-04-10T00:45:29.916Z,0
2017-04-10T00:46:29.942Z,0
2017-04-10T00:47:29.970Z,0
2017-04-10T00:48:29.997Z,0
2017-04-10T00:49:30.027Z,0
2017-04-10T00:50:30.060Z,0
2017-04-10T00:51:30.070Z,0
2017-04-10T00:52:30.116Z,0
2017-04-10T00:53:30.134Z,0
2017-04-10T00:54:30.161Z,0
2017-04-10T00:55:30.215Z,0
2017-04-10T00:56:30.223Z,0
2017-04-10T00:57:30.257Z,0
2017-04-10T00:58:30.288Z,0
2017-04-10T00:59:30.324Z,0
2017-04-10T01:00:30.353Z,0
2017-04-10T01:01:30.362Z,0
2017-04-10T01:02:30.408Z,0
2017-04-10T01:03:30.438Z,0
2017-04-10T01:04:30.446Z,0
2017-04-10T01:05:30.494Z,0
2017-04-10T01:06:30.702Z,0
2017-04-10T01:07:30.574Z,0
2017-04-10T01:08:30.639Z,0
2017-04-10T01:09:30.585Z,0
2017-04-10T01:10:30.664Z,0
2017-04-10T01:11:30.665Z,0
2017-04-10T01:12:30.709Z,0
2017-04-10T01:13:30.738Z,0
2017-04-10T01:14:30.760Z,0
2017-04-10T01:15:30.763Z,0
2017-04-10T01:16:30.788Z,0
2017-04-10T01:17:30.843Z,0
2017-04-10T01:18:30.874Z,0
2017-04-10T01:19:30.906Z,0
2017-04-10T01:20:30.882Z,0
2017-04-10T01:21:30.955Z,0
2017-04-10T01:22:30.988Z,0
2017-04-10T01:23:31.017Z,0
2017-04-10T01:24:31.039Z,0
2017-04-10T01:25:31.081Z,0
2017-04-10T01:26:31.095Z,0
2017-04-10T01:27:31.148Z,0
2017-04-10T01:28:31.162Z,0
2017-04-10T01:29:31.218Z,0
2017-04-10T01:30:31.228Z,0
2017-04-10T01:31:31.262Z,0
2017-04-10T01:32:31.262Z,0
2017-04-10T01:33:31.295Z,0
2017-04-10T01:34:31.338Z,0
2017-04-10T01:35:31.346Z,0
2017-04-10T01:36:31.410Z,0
2017-04-10T01:37:31.424Z,0
2017-04-10T01:38:31.444Z,0
2017-04-10T01:39:31.483Z,0
2017-04-10T01:40:31.509Z,0
2017-04-10T01:41:31.505Z,0
2017-04-10T01:42:31.572Z,0
2017-04-10T01:43:31.570Z,0
2017-04-10T01:44:31.629Z,0
2017-04-10T01:45:31.651Z,0
2017-04-10T01:46:31.672Z,0
2017-04-10T01:47:31.725Z,0
2017-04-10T01:48:31.690Z,0
2017-04-10T01:49:31.744Z,0
2017-04-10T01:50:31.805Z,0
2017-04-10T01:51:31.803Z,0
2017-04-10T01:52:31.841Z,0
2017-04-10T01:53:31.880Z,0
2017-04-10T01:54:31.913Z,0
2017-04-10T01:55:31.949Z,0
2017-04-10T01:56:31.976Z,0
2017-04-10T01:57:31.945Z,0
2017-04-10T01:58:32.003Z,0
2017-04-10T01:59:32.075Z,0
2017-04-10T02:00:32.072Z,0
2017-04-10T02:01:32.138Z,0
2017-04-10T02:02:32.146Z,0
2017-04-10T02:03:32.208Z,0
2017-04-10T02:04:32.283Z,0
2017-04-10T02:05:32.208Z,0
2017-04-10T02:06:32.253Z,0
2017-04-10T02:07:32.268Z,0
2017-04-10T02:08:32.322Z,0
2017-04-10T02:09:32.317Z,0
2017-04-10T02:10:32.358Z,0
2017-04-10T02:11:32.412Z,0
2017-04-10T02:12:32.436Z,0
2017-04-10T02:13:32.475Z,0
2017-04-10T02:14:32.484Z,0
2017-04-10T02:15:32.512Z,0
2017-04-10T02:16:32.550Z,0
2017-04-10T02:17:32.579Z,0
2017-04-10T02:18:32.617Z,0
2017-04-10T02:19:32.609Z,0
2017-04-10T02:20:32.672Z,0
2017-04-10T02:21:32.704Z,0
2017-04-10T02:22:32.734Z,0
2017-04-10T02:23:32.713Z,0
2017-04-10T02:24:32.781Z,0
2017-04-10T02:25:32.903Z,0
2017-04-10T02:26:32.839Z,0
2017-04-10T02:27:32.903Z,0
2017-04-10T02:28:32.892Z,0
2017-04-10T02:29:32.916Z,0
2017-04-10T02:30:32.963Z,0
2017-04-10T02:31:32.991Z,0
2017-04-10T02:32:33.011Z,0
2017-04-10T02:33:33.021Z,0
2017-04-10T02:34:33.036Z,0
2017-04-10T02:35:33.245Z,0
2017-04-10T02:36:33.119Z,0
2017-04-10T02:37:33.161Z,0
2017-04-10T02:38:33.174Z,0
2017-04-10T02:39:33.160Z,0
2017-04-10T02:40:33.314Z,0
2017-04-10T02:41:33.254Z,0
2017-04-10T02:42:33.283Z,0
2017-04-10T02:43:33.300Z,0
2017-04-10T02:44:33.355Z,0
2017-04-10T02:45:33.519Z,0
2017-04-10T02:46:33.415Z,0
2017-04-10T02:47:33.446Z,0
2017-04-10T02:48:33.464Z,0
2017-04-10T02:49:33.505Z,0
2017-04-10T02:50:33.524Z,0
2017-04-10T02:51:33.572Z,0
2017-04-10T02:52:33.551Z,0
2017-04-10T02:53:33.586Z,0
2017-04-10T02:54:33.642Z,0
2017-04-10T02:55:33.662Z,0
2017-04-10T02:56:33.704Z,0
2017-04-10T02:57:33.731Z,0
2017-04-10T02:58:33.761Z,0
2017-04-10T02:59:33.757Z,0
2017-04-10T03:00:33.795Z,0
2017-04-10T03:01:33.821Z,0
2017-04-10T03:02:33.834Z,0
2017-04-10T03:03:33.914Z,0
2017-04-10T03:04:33.932Z,0
2017-04-10T03:05:33.965Z,0
2017-04-10T03:06:33.962Z,0
2017-04-10T03:07:34.001Z,0
2017-04-10T03:08:34.049Z,0
2017-04-10T03:09:34.052Z,0
2017-04-10T03:10:34.094Z,0
2017-04-10T03:11:34.137Z,0
2017-04-10T03:12:34.132Z,0
2017-04-10T03:13:34.185Z,0
2017-04-10T03:14:34.202Z,0
2017-04-10T03:15:34.241Z,0
2017-04-10T03:16:34.213Z,0
2017-04-10T03:17:34.302Z,0
2017-04-10T03:18:34.330Z,0
2017-04-10T03:19:34.336Z,0
2017-04-10T03:20:34.382Z,0
2017-04-10T03:21:34.409Z,0
2017-04-10T03:22:34.474Z,0
2017-04-10T03:23:34.422Z,0
2017-04-10T03:24:34.534Z,0
2017-04-10T03:25:34.525Z,0
2017-04-10T03:26:34.559Z,0
2017-04-10T03:27:34.573Z,0
2017-04-10T03:28:34.609Z,0
2017-04-10T03:29:34.654Z,0
2017-04-10T03:30:34.644Z,0
2017-04-10T03:31:34.688Z,0
2017-04-10T03:32:34.692Z,0
2017-04-10T03:33:34.734Z,0
2017-04-10T03:34:34.780Z,0
2017-04-10T03:35:34.810Z,0
2017-04-10T03:36:34.834Z,0
2017-04-10T03:37:34.864Z,0
2017-04-10T03:38:34.886Z,0
2017-04-10T03:39:34.919Z,0
2017-04-10T03:40:34.972Z,0
2017-04-10T03:41:34.946Z,0
2017-04-10T03:42:34.994Z,0
2017-04-10T03:43:35.044Z,0
2017-04-10T03:44:35.044Z,0
2017-04-10T03:45:35.104Z,0
2017-04-10T03:46:35.100Z,0
2017-04-10T03:47:35.139Z,0
2017-04-10T03:48:35.166Z,0
2017-04-10T03:49:35.210Z,0
2017-04-10T03:50:35.222Z,0
2017-04-10T03:51:35.253Z,0
2017-04-10T03:52:35.284Z,0
2017-04-10T03:53:35.320Z,0
2017-04-10T03:54:35.375Z,0
2017-04-10T03:55:35.355Z,0
2017-04-10T03:56:35.422Z,0
2017-04-10T03:57:35.474Z,0
2017-04-10T03:58:35.463Z,0
2017-04-10T03:59:35.499Z,0
2017-04-10T04:00:35.539Z,0
2017-04-10T04:01:35.532Z,0
2017-04-10T04:02:35.570Z,0
2017-04-10T04:03:35.605Z,0
2017-04-10T04:04:35.624Z,0
2017-04-10T04:05:35.814Z,0
2017-04-10T04:06:35.673Z,0
2017-04-10T04:07:35.721Z,0
2017-04-10T04:08:35.748Z,0
2017-04-10T04:09:35.758Z,0
2017-04-10T04:10:35.796Z,0
2017-04-10T04:11:35.826Z,0
2017-04-10T04:12:35.860Z,5
2017-04-10T04:13:35.854Z,5
2017-04-10T04:14:35.897Z,5
2017-04-10T04:15:35.932Z,5
2017-04-10T04:16:35.972Z,5
2017-04-10T04:17:35.989Z,5
2017-04-10T04:18:36.008Z,5
2017-04-10T04:19:36.057Z,10
2017-04-10T04:20:36.053Z,10
2017-04-10T04:21:36.104Z,10
2017-04-10T04:22:36.137Z,10
2017-04-10T04:23:36.170Z,10
2017-04-10T04:24:36.165Z,15
2017-04-10T04:25:36.231Z,15
2017-04-10T04:26:36.269Z,15
2017-04-10T04:27:36.285Z,15
2017-04-10T04:28:36.303Z,20
2017-04-10T04:29:36.357Z,20
2017-04-10T04:30:36.377Z,20
2017-04-10T04:31:36.405Z,25
2017-04-10T04:32:36.439Z,25
2017-04-10T04:33:36.501Z,25
2017-04-10T04:34:36.501Z,30
2017-04-10T04:35:36.515Z,30
2017-04-10T04:36:36.554Z,30
2017-04-10T04:37:36.569Z,35
2017-04-10T04:38:36.612Z,35
2017-04-10T04:39:36.635Z,40
2017-04-10T04:40:36.655Z,40
2017-04-10T04:41:36.685Z,40
2017-04-10T04:42:36.722Z,45
2017-04-10T04:43:36.768Z,45
2017-04-10T04:44:36.765Z,50
2017-04-10T04:45:36.808Z,50
2017-04-10T04:46:36.846Z,55
2017-04-10T04:47:36.859Z,55
2017-04-10T04:48:36.850Z,55
2017-04-10T04:49:36.899Z,60
2017-04-10T04:50:36.940Z,60
2017-04-10T04:51:36.971Z,65
2017-04-10T04:52:36.989Z,65
2017-04-10T04:53:37.021Z,70
2017-04-10T04:54:37.027Z,70
2017-04-10T04:55:37.073Z,75
2017-04-10T04:56:37.108Z,75
2017-04-10T04:57:37.118Z,80
2017-04-10T04:58:37.167Z,80
2017-04-10T04:59:37.186Z,85
2017-04-10T05:00:37.220Z,90
2017-04-10T05:01:37.246Z,90
2017-04-10T05:02:37.292Z,95
2017-04-10T05:03:37.311Z,95
2017-04-10T05:04:37.334Z,100
2017-04-10T05:05:37.377Z,100
2017-04-10T05:06:37.405Z,105
2017-04-10T05:07:37.395Z,105
2017-04-10T05:08:37.437Z,110
2017-04-10T05:09:37.484Z,110
2017-04-10T05:10:37.494Z,115
2017-04-10T05:11:37.568Z,115
2017-04-10T05:12:37.575Z,120
2017-04-10T05:13:37.551Z,125
2017-04-10T05:14:37.639Z,125
2017-04-10T05:15:37.674Z,125
2017-04-10T05:16:37.675Z,130
2017-04-10T05:17:37.703Z,130
2017-04-10T05:18:37.752Z,130
2017-04-10T05:19:37.776Z,135
2017-04-10T05:20:37.838Z,135
2017-04-10T05:21:37.849Z,140
2017-04-10T05:22:37.876Z,140
2017-04-10T05:23:37.911Z,145
2017-04-10T05:24:37.883Z,145
2017-04-10T05:25:38.044Z,150
2017-04-10T05:26:37.985Z,155
2017-04-10T05:27:38.037Z,155
2017-04-10T05:28:38.044Z,160
2017-04-10T05:29:38.066Z,165
2017-04-10T05:30:38.083Z,165
2017-04-10T05:31:38.126Z,170
2017-04-10T05:32:38.144Z,175
2017-04-10T05:33:38.178Z,180
2017-04-10T05:34:38.247Z,190
2017-04-10T05:35:38.247Z,210
2017-04-10T05:36:38.280Z,225
2017-04-10T05:37:38.303Z,225
2017-04-10T05:38:38.323Z,235
2017-04-10T05:39:38.348Z,255
2017-04-10T05:40:38.376Z,285
2017-04-10T05:41:38.427Z,380
2017-04-10T05:42:38.453Z,375
2017-04-10T05:43:38.485Z,320
2017-04-10T05:44:38.493Z,355
2017-04-10T05:45:38.555Z,485
2017-04-10T05:46:38.536Z,625
2017-04-10T05:47:38.882Z,635
2017-04-10T05:48:38.597Z,675
2017-04-10T05:49:38.670Z,705
2017-04-10T05:50:38.673Z,675
2017-04-10T05:51:38.709Z,655
2017-04-10T05:52:38.915Z,675
2017-04-10T05:53:38.810Z,710
2017-04-10T05:54:38.850Z,775
2017-04-10T05:55:38.846Z,825
2017-04-10T05:56:38.873Z,810
2017-04-10T05:57:39.050Z,845
2017-04-10T05:58:38.927Z,835
2017-04-10T05:59:38.983Z,835
2017-04-10T06:00:38.987Z,855
2017-04-10T06:01:39.032Z,890
2017-04-10T06:02:39.207Z,930
2017-04-10T06:03:39.101Z,910
2017-04-10T06:04:39.134Z,945
2017-04-10T06:05:39.175Z,940
2017-04-10T06:06:39.218Z,930
2017-04-10T06:07:39.590Z,920
2017-04-10T06:08:39.277Z,920
2017-04-10T06:09:39.287Z,940
2017-04-10T06:10:39.338Z,950
2017-04-10T06:11:39.388Z,935
2017-04-10T06:12:39.376Z,955
2017-04-10T06:13:39.473Z,965
2017-04-10T06:14:39.473Z,955
2017-04-10T06:15:39.524Z,965
2017-04-10T06:16:39.518Z,1010
2017-04-10T06:17:39.578Z,995
2017-04-10T06:18:39.590Z,995
2017-04-10T06:19:39.630Z,1015
2017-04-10T06:20:39.690Z,1015
2017-04-10T06:21:39.730Z,1035
2017-04-10T06:22:39.725Z,1040
2017-04-10T06:23:39.797Z,1040
2017-04-10T06:24:39.827Z,1045
2017-04-10T06:25:39.858Z,1015
2017-04-10T06:26:39.892Z,1060
2017-04-10T06:27:39.922Z,1070
2017-04-10T06:28:39.988Z,1065
2017-04-10T06:29:40.016Z,1080
2017-04-10T06:30:40.070Z,1110
2017-04-10T06:31:40.088Z,1105
2017-04-10T06:32:40.129Z,1080
2017-04-10T06:33:40.261Z,1110
2017-04-10T06:34:40.192Z,1125
2017-04-10T06:35:40.252Z,1130
2017-04-10T06:36:40.254Z,1125
2017-04-10T06:37:40.328Z,1160
2017-04-10T06:38:40.599Z,1165
2017-04-10T06:39:40.395Z,1150
2017-04-10T06:40:40.432Z,1200
2017-04-10T06:41:40.467Z,1260
2017-04-10T06:42:40.513Z,1270
2017-04-10T06:43:40.551Z,1255
2017-04-10T06:44:40.592Z,1285
2017-04-10T06:45:40.628Z,1290
2017-04-10T06:46:40.643Z,1260
2017-04-10T06:47:40.702Z,1275
2017-04-10T06:48:40.709Z,1300
2017-04-10T06:49:40.790Z,1320
2017-04-10T06:50:40.793Z,1355
2017-04-10T06:51:40.862Z,1375
2017-04-10T06:52:40.889Z,1420
2017-04-10T06:53:40.936Z,1455
2017-04-10T06:54:40.983Z,1425
2017-04-10T06:55:41.014Z,1405
2017-04-10T06:56:41.054Z,1375
2017-04-10T06:57:41.095Z,1420
2017-04-10T06:58:41.135Z,1440
2017-04-10T06:59:41.230Z,1430
2017-04-10T07:00:41.208Z,1435
2017-04-10T07:01:41.255Z,1490
2017-04-10T07:02:41.312Z,1475
2017-04-10T07:03:41.313Z,1475
2017-04-10T07:04:41.369Z,1505
2017-04-10T07:05:41.380Z,1515
2017-04-10T07:06:41.439Z,1525
2017-04-10T07:07:41.497Z,1510
2017-04-10T07:08:41.566Z,1495
2017-04-10T07:09:41.574Z,1565
2017-04-10T07:10:41.582Z,1580
2017-04-10T07:11:41.635Z,1540
2017-04-10T07:12:41.683Z,1500
2017-04-10T07:13:41.688Z,1515
2017-04-10T07:14:41.765Z,1530
2017-04-10T07:15:41.808Z,1540
2017-04-10T07:16:41.846Z,1560
2017-04-10T07:17:41.878Z,1585
2017-04-10T07:18:41.938Z,1640
2017-04-10T07:19:41.967Z,1665
2017-04-10T07:20:42.011Z,1625
2017-04-10T07:21:42.037Z,1650
2017-04-10T07:22:42.072Z,1685
2017-04-10T07:23:42.133Z,1695
2017-04-10T07:24:42.173Z,1665
2017-04-10T07:25:42.511Z,1650
2017-04-10T07:26:42.270Z,1680
2017-04-10T07:27:42.290Z,1700
2017-04-10T07:28:42.375Z,1680
2017-04-10T07:29:42.375Z,1690
2017-04-10T07:30:42.497Z,1700
2017-04-10T07:31:42.462Z,1695
2017-04-10T07:32:42.480Z,1690
2017-04-10T07:33:42.542Z,1760
2017-04-10T07:34:42.574Z,1695
2017-04-10T07:35:42.623Z,1615
2017-04-10T07:36:42.691Z,1705
2017-04-10T07:37:42.684Z,1735
2017-04-10T07:38:42.751Z,1735
2017-04-10T07:39:42.761Z,1795
2017-04-10T07:40:42.907Z,1820
2017-04-10T07:41:42.881Z,1800
2017-04-10T07:42:42.901Z,1750
2017-04-10T07:43:42.958Z,1710
2017-04-10T07:44:42.984Z,1690
2017-04-10T07:45:43.038Z,1710
2017-04-10T07:46:43.063Z,1800
2017-04-10T07:47:43.109Z,1815
2017-04-10T07:48:43.163Z,1775
2017-04-10T07:49:43.251Z,1835
2017-04-10T07:50:43.261Z,1790
2017-04-10T07:51:43.291Z,1800
2017-04-10T07:52:43.337Z,1900
2017-04-10T07:53:43.388Z,1950
2017-04-10T07:54:43.424Z,1905
2017-04-10T07:55:43.475Z,1875
2017-04-10T07:56:43.508Z,1740
2017-04-10T07:57:43.605Z,1665
2017-04-10T07:58:43.571Z,1750
2017-04-10T07:59:43.637Z,1880
2017-04-10T08:00:43.685Z,1885
2017-04-10T08:01:43.730Z,1890
2017-04-10T08:02:43.773Z,1930
2017-04-10T08:03:43.807Z,1950
2017-04-10T08:04:43.857Z,1980
2017-04-10T08:05:43.885Z,1965
2017-04-10T08:06:43.957Z,1965
2017-04-10T08:07:43.985Z,2020
2017-04-10T08:08:44.036Z,2075
2017-04-10T08:09:44.066Z,2025
2017-04-10T08:10:44.132Z,2045
2017-04-10T08:11:44.310Z,2030
2017-04-10T08:12:44.201Z,1995
2017-04-10T08:13:44.247Z,2000
2017-04-10T08:14:44.301Z,2010
2017-04-10T08:15:44.350Z,2015
2017-04-10T08:16:44.505Z,2040
2017-04-10T08:17:44.440Z,2045
2017-04-10T08:18:44.468Z,2025
2017-04-10T08:19:44.498Z,2055
2017-04-10T08:20:44.568Z,2070
2017-04-10T08:21:44.615Z,2170
2017-04-10T08:22:44.644Z,2165
2017-04-10T08:23:44.673Z,2040
2017-04-10T08:24:44.750Z,1980
2017-04-10T08:25:44.784Z,1890
2017-04-10T08:26:44.974Z,1835
2017-04-10T08:27:44.872Z,1875
2017-04-10T08:28:44.928Z,1870
2017-04-10T08:29:44.985Z,1805
2017-04-10T08:30:45.013Z,2055
2017-04-10T08:31:45.207Z,2180
2017-04-10T08:32:45.082Z,2155
2017-04-10T08:33:45.158Z,1920
2017-04-10T08:34:45.200Z,1660
2017-04-10T08:35:45.234Z,1655
2017-04-10T08:36:45.398Z,1670
2017-04-10T08:37:45.332Z,1720
2017-04-10T08:38:45.378Z,1765
2017-04-10T08:39:45.421Z,1705
2017-04-10T08:40:45.516Z,1855
2017-04-10T08:41:45.519Z,2030
2017-04-10T08:42:45.574Z,2095
2017-04-10T08:43:45.584Z,2135
2017-04-10T08:44:45.630Z,2220
2017-04-10T08:45:45.700Z,2290
2017-04-10T08:46:45.748Z,2260
2017-04-10T08:47:45.782Z,2185
2017-04-10T08:48:45.822Z,2195
2017-04-10T08:49:45.890Z,2215
2017-04-10T08:50:45.936Z,2230
2017-04-10T08:51:45.976Z,2280
2017-04-10T08:52:46.039Z,2230
2017-04-10T08:53:46.053Z,2175
2017-04-10T08:54:46.125Z,2210
2017-04-10T08:55:46.165Z,2165
2017-04-10T08:56:46.179Z,2220
2017-04-10T08:57:46.275Z,2295
2017-04-10T08:58:46.266Z,2305
2017-04-10T08:59:46.350Z,2275
2017-04-10T09:00:46.398Z,2285
2017-04-10T09:01:46.448Z,2175
2017-04-10T09:02:46.600Z,2125
2017-04-10T09:03:46.548Z,2110
2017-04-10T09:04:46.583Z,2175
2017-04-10T09:05:46.632Z,2255
2017-04-10T09:06:46.683Z,2400
2017-04-10T09:07:46.815Z,2285
2017-04-10T09:08:46.781Z,2140
2017-04-10T09:09:46.807Z,2185
2017-04-10T09:10:46.870Z,2255
2017-04-10T09:11:46.913Z,2300
2017-04-10T09:12:47.113Z,2320
2017-04-10T09:13:46.996Z,2275
2017-04-10T09:14:47.102Z,2325
2017-04-10T09:15:47.111Z,2285
2017-04-10T09:16:47.147Z,2190
2017-04-10T09:17:47.307Z,2235
2017-04-10T09:18:47.247Z,2265
2017-04-10T09:19:47.284Z,2370
2017-04-10T09:20:47.333Z,2295
2017-04-10T09:21:47.409Z,2310
2017-04-10T09:22:47.453Z,2420
2017-04-10T09:23:47.486Z,2285
2017-04-10T09:24:47.548Z,2315
2017-04-10T09:25:47.583Z,2255
2017-04-10T09:26:47.610Z,2310
2017-04-10T09:27:47.666Z,2445
2017-04-10T09:28:47.753Z,2475
2017-04-10T09:29:47.777Z,2335
2017-04-10T09:30:47.825Z,2235
2017-04-10T09:31:47.874Z,2285
2017-04-10T09:32:47.885Z,2370
2017-04-10T09:33:47.959Z,2320
2017-04-10T09:34:48.010Z,2315
2017-04-10T09:35:48.082Z,2390
2017-04-10T09:36:48.104Z,2305
2017-04-10T09:37:48.161Z,2290
2017-04-10T09:38:48.207Z,2240
2017-04-10T09:39:48.250Z,2275
2017-04-10T09:40:48.316Z,2370
2017-04-10T09:41:48.380Z,2325
2017-04-10T09:42:48.409Z,2495
2017-04-10T09:43:48.479Z,2645
2017-04-10T09:44:48.508Z,2560
2017-04-10T09:45:48.551Z,2660
2017-04-10T09:46:48.602Z,2695
2017-04-10T09:47:48.657Z,2665
2017-04-10T09:48:48.686Z,2600
2017-04-10T09:49:48.761Z,2575
2017-04-10T09:50:48.794Z,2625
2017-04-10T09:51:48.847Z,2545
2017-04-10T09:52:48.893Z,2310
2017-04-10T09:53:48.955Z,2005
2017-04-10T09:54:48.984Z,1710
2017-04-10T09:55:49.043Z,1570
2017-04-10T09:56:49.097Z,1435
2017-04-10T09:57:49.144Z,1305
2017-04-10T09:58:49.194Z,1215
2017-04-10T09:59:49.202Z,1120
2017-04-10T10:00:49.280Z,1105
2017-04-10T10:01:49.325Z,1065
2017-04-10T10:02:49.375Z,1040
2017-04-10T10:03:49.427Z,1000
2017-04-10T10:04:49.452Z,980
2017-04-10T10:05:49.503Z,955
2017-04-10T10:06:49.565Z,930
2017-04-10T10:07:49.610Z,955
2017-04-10T10:08:49.671Z,925
2017-04-10T10:09:49.709Z,940
2017-04-10T10:10:49.730Z,935
2017-04-10T10:11:49.810Z,910
2017-04-10T10:12:49.841Z,875
2017-04-10T10:13:49.879Z,780
2017-04-10T10:14:49.958Z,760
2017-04-10T10:15:49.973Z,790
2017-04-10T10:16:50.023Z,745
2017-04-10T10:17:50.086Z,770
2017-04-10T10:18:50.084Z,750
2017-04-10T10:19:50.161Z,755
2017-04-10T10:20:50.206Z,780
2017-04-10T10:21:50.243Z,855
2017-04-10T10:22:50.294Z,835
2017-04-10T10:23:50.319Z,890
2017-04-10T10:24:50.388Z,860
2017-04-10T10:25:50.394Z,910
2017-04-10T10:26:50.478Z,855
2017-04-10T10:27:50.508Z,860
2017-04-10T10:28:50.559Z,840
2017-04-10T10:29:50.579Z,785
2017-04-10T10:30:50.648Z,920
2017-04-10T10:31:50.682Z,890
2017-04-10T10:32:50.711Z,875
2017-04-10T10:33:50.750Z,865
2017-04-10T10:34:50.805Z,835
2017-04-10T10:35:50.851Z,820
2017-04-10T10:36:50.906Z,830
2017-04-10T10:37:50.943Z,780
2017-04-10T10:38:50.968Z,760
2017-04-10T10:39:51.052Z,745
2017-04-10T10:40:51.078Z,715
2017-04-10T10:41:51.089Z,665
2017-04-10T10:42:51.141Z,680
2017-04-10T10:43:51.184Z,680
2017-04-10T10:44:51.240Z,725
2017-04-10T10:45:51.281Z,795
2017-04-10T10:46:51.298Z,790
2017-04-10T10:47:51.353Z,885
2017-04-10T10:48:51.398Z,965
2017-04-10T10:49:51.447Z,925
2017-04-10T10:50:51.501Z,790
2017-04-10T10:51:51.520Z,740
2017-04-10T10:52:51.573Z,685
2017-04-10T10:53:51.599Z,650
2017-04-10T10:54:51.655Z,685
2017-04-10T10:55:51.702Z,665
2017-04-10T10:56:51.737Z,660
2017-04-10T10:57:51.772Z,730
2017-04-10T10:58:51.829Z,745
2017-04-10T10:59:51.860Z,790
2017-04-10T11:00:52.128Z,795
2017-04-10T11:01:51.929Z,780
2017-04-10T11:02:52.027Z,760
2017-04-10T11:03:52.014Z,725
2017-04-10T11:04:52.047Z,680
2017-04-10T11:05:52.113Z,640
2017-04-10T11:06:52.158Z,570
2017-04-10T11:07:52.193Z,620
2017-04-10T11:08:52.226Z,625
2017-04-10T11:09:52.254Z,600
2017-04-10T11:10:52.285Z,595
2017-04-10T11:11:52.345Z,605
2017-04-10T11:12:52.380Z,590
2017-04-10T11:13:52.407Z,555
2017-04-10T11:14:52.472Z,540
2017-04-10T11:15:52.514Z,550
2017-04-10T11:16:52.554Z,605
2017-04-10T11:17:52.571Z,625
2017-04-10T11:18:52.618Z,630
2017-04-10T11:19:52.652Z,640
2017-04-10T11:20:52.705Z,645
2017-04-10T11:21:52.752Z,650
2017-04-10T11:22:52.788Z,625
2017-04-10T11:23:52.864Z,625
2017-04-10T11:24:52.851Z,620
2017-04-10T11:25:52.921Z,600
2017-04-10T11:26:52.959Z,580
2017-04-10T11:27:52.989Z,575
2017-04-10T11:28:53.026Z,595
2017-04-10T11:29:53.049Z,600
2017-04-10T11:30:53.088Z,610
2017-04-10T11:31:53.150Z,685
2017-04-10T11:32:53.171Z,755
2017-04-10T11:33:53.256Z,695
2017-04-10T11:34:53.249Z,650
2017-04-10T11:35:53.288Z,645
2017-04-10T11:36:53.342Z,720
2017-04-10T11:37:53.371Z,735
2017-04-10T11:38:53.426Z,675
2017-04-10T11:39:53.451Z,635
2017-04-10T11:40:53.482Z,685
2017-04-10T11:41:53.553Z,685
2017-04-10T11:42:53.589Z,645
2017-04-10T11:43:53.619Z,600
2017-04-10T11:44:53.652Z,545
2017-04-10T11:45:53.702Z,555
2017-04-10T11:46:53.747Z,520
2017-04-10T11:47:53.786Z,515
2017-04-10T11:48:53.800Z,570
2017-04-10T11:49:53.848Z,470
2017-04-10T11:50:53.883Z,415
2017-04-10T11:51:53.954Z,435
2017-04-10T11:52:53.980Z,490
2017-04-10T11:53:54.020Z,505
2017-04-10T11:54:54.042Z,545
2017-04-10T11:55:54.065Z,560
2017-04-10T11:56:54.140Z,555
2017-04-10T11:57:54.170Z,555
2017-04-10T11:58:54.202Z,520
2017-04-10T11:59:54.248Z,480
2017-04-10T12:00:54.339Z,460
2017-04-10T12:01:54.318Z,475
2017-04-10T12:02:54.370Z,500
2017-04-10T12:03:54.406Z,500
2017-04-10T12:04:54.445Z,475
2017-04-10T12:05:54.466Z,465
2017-04-10T12:06:54.534Z,480
2017-04-10T12:07:54.555Z,480
2017-04-10T12:08:54.598Z,465
2017-04-10T12:09:54.608Z,465
2017-04-10T12:10:54.688Z,505
2017-04-10T12:11:54.725Z,480
2017-04-10T12:12:54.746Z,430
2017-04-10T12:13:54.800Z,390
2017-04-10T12:14:54.816Z,340
2017-04-10T12:15:54.873Z,300
2017-04-10T12:16:54.915Z,330
2017-04-10T12:17:54.945Z,365
2017-04-10T12:18:54.983Z,405
2017-04-10T12:19:55.044Z,385
2017-04-10T12:20:55.067Z,385
2017-04-10T12:21:55.064Z,420
2017-04-10T12:22:55.169Z,445
2017-04-10T12:23:55.181Z,460
2017-04-10T12:24:55.213Z,470
2017-04-10T12:25:55.252Z,475
2017-04-10T12:26:55.297Z,475
2017-04-10T12:27:55.334Z,490
2017-04-10T12:28:55.380Z,495
2017-04-10T12:29:55.419Z,515
2017-04-10T12:30:55.436Z,540
2017-04-10T12:31:55.474Z,525
2017-04-10T12:32:55.510Z,535
2017-04-10T12:33:55.549Z,530
2017-04-10T12:34:55.599Z,490
2017-04-10T12:35:55.646Z,445
2017-04-10T12:36:55.683Z,425
2017-04-10T12:37:55.721Z,445
2017-04-10T12:38:55.746Z,435
2017-04-10T12:39:55.827Z,390
2017-04-10T12:40:55.841Z,375
2017-04-10T12:41:55.867Z,400
2017-04-10T12:42:55.897Z,395
2017-04-10T12:43:55.913Z,395
2017-04-10T12:44:55.969Z,380
2017-04-10T12:45:56.038Z,380
2017-04-10T12:46:56.045Z,400
2017-04-10T12:47:56.061Z,385
2017-04-10T12:48:56.142Z,365
2017-04-10T12:49:56.175Z,405
2017-04-10T12:50:56.194Z,430
2017-04-10T12:51:56.238Z,445
2017-04-10T12:52:56.295Z,470
2017-04-10T12:53:56.318Z,510
2017-04-10T12:54:56.387Z,515
2017-04-10T12:55:56.396Z,535
2017-04-10T12:56:56.411Z,570
2017-04-10T12:57:56.471Z,560
2017-04-10T12:58:56.462Z,560
2017-04-10T12:59:56.545Z,560
2017-04-10T13:00:56.573Z,500
2017-04-10T13:01:56.590Z,465
2017-04-10T13:02:56.668Z,435
2017-04-10T13:03:56.671Z,415
2017-04-10T13:04:56.732Z,405
2017-04-10T13:05:56.778Z,395
2017-04-10T13:06:56.791Z,380
2017-04-10T13:07:56.842Z,385
2017-04-10T13:08:56.884Z,365
2017-04-10T13:09:56.926Z,365
2017-04-10T13:10:56.920Z,355
2017-04-10T13:11:56.996Z,375
2017-04-10T13:12:57.026Z,385
2017-04-10T13:13:57.070Z,390
2017-04-10T13:14:57.092Z,415
2017-04-10T13:15:57.142Z,425
2017-04-10T13:16:57.191Z,405
2017-04-10T13:17:57.190Z,385
2017-04-10T13:18:57.249Z,375
2017-04-10T13:19:57.298Z,360
2017-04-10T13:20:57.311Z,360
2017-04-10T13:21:57.369Z,350
2017-04-10T13:22:57.371Z,335
2017-04-10T13:23:57.426Z,320
2017-04-10T13:24:57.474Z,320
2017-04-10T13:25:57.495Z,325
2017-04-10T13:26:57.548Z,335
2017-04-10T13:27:57.570Z,335
2017-04-10T13:28:57.609Z,330
2017-04-10T13:29:57.666Z,325
2017-04-10T13:30:57.690Z,310
2017-04-10T13:31:57.712Z,270
2017-04-10T13:32:57.768Z,245
2017-04-10T13:33:57.807Z,245
2017-04-10T13:34:57.862Z,270
2017-04-10T13:35:57.871Z,310
2017-04-10T13:36:57.913Z,325
2017-04-10T13:37:57.939Z,315
2017-04-10T13:38:57.967Z,320
2017-04-10T13:39:58.037Z,335
2017-04-10T13:40:58.062Z,355
2017-04-10T13:41:58.095Z,370
2017-04-10T13:42:58.105Z,375
2017-04-10T13:43:58.173Z,370
2017-04-10T13:44:58.188Z,370
2017-04-10T13:45:58.236Z,360
2017-04-10T13:46:58.283Z,350
2017-04-10T13:47:58.364Z,365
2017-04-10T13:48:58.335Z,370
2017-04-10T13:49:58.376Z,375
2017-04-10T13:50:58.410Z,355
2017-04-10T13:51:58.446Z,350
2017-04-10T13:52:58.469Z,345
2017-04-10T13:53:58.566Z,365
2017-04-10T13:54:58.564Z,415
2017-04-10T13:55:58.591Z,340
2017-04-10T13:56:58.637Z,325
2017-04-10T13:57:58.638Z,310